createdAt,value
2018-06-15T00:00:21.912Z,9.17
2018-06-15T00:02:55.708Z,9.47
2018-06-15T00:05:24.238Z,9.27
2018-06-15T00:07:52.776Z,8.33
2018-06-15T00:10:21.572Z,8.87
2018-06-15T00:12:50.073Z,8.57
2018-06-15T00:15:18.618Z,8.67
2018-06-15T00:17:47.184Z,8.97
2018-06-15T00:20:15.742Z,10.50
2018-06-15T00:22:44.276Z,9.43
2018-06-15T00:25:12.838Z,10.60
2018-06-15T00:27:41.935Z,10.65
2018-06-15T00:30:10.485Z,10.33
2018-06-15T00:32:39.029Z,8.83
2018-06-15T00:35:07.661Z,10.70
2018-06-15T00:37:36.181Z,10.93
2018-06-15T00:40:04.830Z,10.33
2018-06-15T00:42:33.325Z,9.90
2018-06-15T00:45:01.857Z,9.67
2018-06-15T00:47:30.360Z,12.37
2018-06-15T00:49:58.900Z,12.03
2018-06-15T00:52:27.400Z,10.23
2018-06-15T00:54:55.984Z,10.98
2018-06-15T00:57:35.624Z,10.07
2018-06-15T01:00:04.248Z,9.90
2018-06-15T01:02:32.758Z,9.93
2018-06-15T01:05:01.288Z,10.97
2018-06-15T01:07:29.784Z,11.95
2018-06-15T01:09:58.364Z,12.23
2018-06-15T01:12:26.872Z,11.75
2018-06-15T01:14:55.405Z,9.77
2018-06-15T01:17:23.979Z,9.53
2018-06-15T01:19:52.473Z,8.73
2018-06-15T01:22:21.005Z,8.93
2018-06-15T01:24:49.576Z,9.43
2018-06-15T01:27:18.129Z,11.33
2018-06-15T01:29:46.933Z,8.77
2018-06-15T01:32:15.457Z,9.60
2018-06-15T01:34:43.958Z,8.60
2018-06-15T01:37:12.496Z,8.83
2018-06-15T01:39:42.097Z,8.78
2018-06-15T01:42:10.649Z,9.13
2018-06-15T01:44:39.181Z,9.50
2018-06-15T01:47:07.736Z,9.83
2018-06-15T01:49:36.241Z,9.50
2018-06-15T01:52:04.792Z,8.00
2018-06-15T01:54:33.293Z,8.20
2018-06-15T01:57:01.837Z,8.70
2018-06-15T01:59:30.397Z,7.70
2018-06-15T02:01:58.942Z,7.87
2018-06-15T02:04:27.437Z,8.87
2018-06-15T02:06:55.981Z,8.83
2018-06-15T02:09:24.485Z,8.63
2018-06-15T02:11:53.077Z,9.70
2018-06-15T02:14:21.713Z,8.23
2018-06-15T02:16:50.268Z,8.67
2018-06-15T02:19:18.763Z,8.30
2018-06-15T02:21:47.340Z,9.00
2018-06-15T02:24:15.844Z,8.47
2018-06-15T02:26:44.373Z,8.70
2018-06-15T02:29:12.888Z,8.27
2018-06-15T02:31:42.285Z,8.03
2018-06-15T02:34:10.792Z,8.27
2018-06-15T02:36:39.345Z,8.40
2018-06-15T02:39:09.545Z,8.37
2018-06-15T02:41:38.148Z,8.23
2018-06-15T02:44:06.896Z,8.20
2018-06-15T02:46:35.434Z,8.83
2018-06-15T02:49:03.969Z,8.40
2018-06-15T02:51:32.569Z,8.13
2018-06-15T02:54:01.086Z,7.47
2018-06-15T02:56:29.689Z,7.63
2018-06-15T02:58:58.373Z,7.47
2018-06-15T03:01:27.049Z,7.60
2018-06-15T03:03:55.704Z,8.43
2018-06-15T03:06:24.469Z,7.45
2018-06-15T03:08:53.080Z,7.67
2018-06-15T03:11:21.604Z,8.70
2018-06-15T03:13:50.474Z,7.15
2018-06-15T03:16:18.992Z,7.57
2018-06-15T03:18:47.560Z,8.27
2018-06-15T03:21:16.081Z,8.83
2018-06-15T03:23:44.646Z,7.87
2018-06-15T03:26:13.164Z,9.10
2018-06-15T03:28:42.620Z,8.43
2018-06-15T03:31:11.144Z,7.50
2018-06-15T03:33:39.687Z,8.20
2018-06-15T03:36:08.230Z,7.60
2018-06-15T03:38:37.013Z,8.27
2018-06-15T03:41:05.629Z,8.50
2018-06-15T03:43:34.213Z,8.00
2018-06-15T03:46:02.796Z,8.17
2018-06-15T03:48:31.382Z,8.75
2018-06-15T03:50:59.963Z,8.13
2018-06-15T03:53:28.530Z,8.93
2018-06-15T03:55:57.089Z,8.87
2018-06-15T03:58:25.659Z,9.57
2018-06-15T04:00:54.216Z,9.90
2018-06-15T04:03:22.827Z,11.30
2018-06-15T04:05:51.369Z,10.08
2018-06-15T04:08:20.211Z,9.83
2018-06-15T04:10:48.745Z,10.35
2018-06-15T04:13:17.413Z,10.60
2018-06-15T04:15:45.916Z,9.80
2018-06-15T04:18:14.473Z,10.87
2018-06-15T04:20:43.458Z,9.80
2018-06-15T04:23:12.035Z,11.53
2018-06-15T04:25:40.565Z,10.40
2018-06-15T04:28:09.133Z,11.57
2018-06-15T04:30:37.658Z,10.53
2018-06-15T04:33:06.212Z,12.03
2018-06-15T04:35:34.752Z,11.00
2018-06-15T04:38:03.328Z,11.60
2018-06-15T04:40:31.849Z,9.73
2018-06-15T04:43:00.428Z,13.05
2018-06-15T04:45:28.968Z,12.58
2018-06-15T04:47:57.529Z,13.80
2018-06-15T04:50:26.062Z,18.30
2018-06-15T04:52:54.625Z,14.03
2018-06-15T04:55:23.176Z,13.85
2018-06-15T04:57:51.717Z,15.98
2018-06-15T05:00:20.320Z,17.20
2018-06-15T05:02:48.849Z,15.70
2018-06-15T05:05:17.434Z,15.47
2018-06-15T05:07:46.216Z,15.50
2018-06-15T05:10:14.776Z,15.37
2018-06-15T05:12:43.741Z,18.10
2018-06-15T05:15:12.313Z,16.77
2018-06-15T05:17:40.900Z,18.17
2018-06-15T05:20:09.480Z,15.73
2018-06-15T05:22:38.016Z,17.93
2018-06-15T05:25:08.702Z,16.55
2018-06-15T05:27:37.228Z,18.83
2018-06-15T05:30:05.865Z,18.53
2018-06-15T05:32:34.412Z,19.73
2018-06-15T05:35:02.997Z,19.43
2018-06-15T05:37:31.569Z,19.07
2018-06-15T05:40:00.134Z,17.67
2018-06-15T05:42:28.803Z,19.42
2018-06-15T05:44:57.376Z,17.70
2018-06-15T05:47:25.928Z,18.80
2018-06-15T05:49:54.505Z,19.47
2018-06-15T05:52:23.057Z,20.13
2018-06-15T05:54:51.675Z,19.23
2018-06-15T05:57:20.490Z,18.07
2018-06-15T05:59:53.469Z,20.30
2018-06-15T06:02:27.680Z,19.13
2018-06-15T06:04:58.700Z,24.63
2018-06-15T06:07:41.297Z,22.40
2018-06-15T06:10:09.833Z,20.90
2018-06-15T06:12:38.340Z,20.23
2018-06-15T06:15:06.917Z,20.37
2018-06-15T06:17:35.424Z,18.83
2018-06-15T06:20:04.136Z,19.73
2018-06-15T06:22:32.642Z,22.53
2018-06-15T06:25:01.231Z,20.15
2018-06-15T06:27:29.778Z,20.77
2018-06-15T06:29:58.357Z,22.27
2018-06-15T06:32:27.727Z,23.53
2018-06-15T06:34:56.293Z,22.50
2018-06-15T06:37:24.921Z,22.53
2018-06-15T06:39:53.463Z,84.07
2018-06-15T06:42:22.022Z,22.37
2018-06-15T06:44:51.017Z,20.63
2018-06-15T06:47:19.571Z,19.82
2018-06-15T06:49:48.135Z,19.00
2018-06-15T06:52:17.176Z,17.37
2018-06-15T06:54:46.456Z,18.53
2018-06-15T06:57:15.015Z,18.80
2018-06-15T06:59:44.771Z,21.33
2018-06-15T07:02:14.077Z,21.23
2018-06-15T07:10:24.698Z,20.13
2018-06-15T07:12:53.219Z,19.85
2018-06-15T07:15:23.529Z,20.73
2018-06-15T07:17:52.204Z,19.80
2018-06-15T07:20:20.944Z,21.03
2018-06-15T07:22:49.669Z,19.27
2018-06-15T07:25:18.268Z,18.73
2018-06-15T07:27:47.104Z,17.67
2018-06-15T07:30:15.913Z,20.73
2018-06-15T07:32:44.712Z,20.33
2018-06-15T07:35:14.145Z,18.20
2018-06-15T07:37:42.683Z,17.87
2018-06-15T07:40:11.229Z,18.00
2018-06-15T07:42:41.061Z,19.20
2018-06-15T07:45:10.538Z,18.60
2018-06-15T07:47:42.885Z,19.87
2018-06-15T07:50:11.711Z,18.80
2018-06-15T07:52:40.233Z,19.53
2018-06-15T07:55:08.772Z,18.93
2018-06-15T07:57:37.453Z,17.87
2018-06-15T08:00:06.346Z,17.27
2018-06-15T08:02:34.896Z,17.10
2018-06-15T08:05:03.407Z,16.47
2018-06-15T08:07:31.960Z,17.07
2018-06-15T08:10:00.497Z,17.30
2018-06-15T08:12:29.072Z,16.80
2018-06-15T08:14:57.640Z,16.50
2018-06-15T08:17:26.180Z,18.83
2018-06-15T08:19:54.703Z,16.27
2018-06-15T08:22:23.249Z,17.03
2018-06-15T08:24:51.757Z,16.33
2018-06-15T08:27:20.384Z,18.15
2018-06-15T08:29:48.897Z,16.17
2018-06-15T08:32:17.449Z,15.70
2018-06-15T08:34:45.972Z,15.93
2018-06-15T08:37:14.521Z,15.63
2018-06-15T08:39:51.476Z,14.57
2018-06-15T08:42:20.695Z,13.53
2018-06-15T08:44:49.381Z,12.47
2018-06-15T08:47:17.976Z,11.90
2018-06-15T08:49:46.761Z,10.53
2018-06-15T08:52:15.300Z,12.97
2018-06-15T08:54:44.396Z,10.32
2018-06-15T08:57:13.092Z,10.67
2018-06-15T08:59:41.776Z,9.53
2018-06-15T09:02:10.323Z,9.10
2018-06-15T09:04:39.259Z,9.27
2018-06-15T09:07:07.821Z,9.97
2018-06-15T09:09:36.372Z,9.35
2018-06-15T09:12:05.596Z,9.43
2018-06-15T09:14:34.121Z,9.10
2018-06-15T09:17:02.709Z,10.07
2018-06-15T09:19:31.239Z,9.70
2018-06-15T09:22:00.885Z,9.40
2018-06-15T09:24:29.670Z,8.50
2018-06-15T09:26:58.220Z,8.20
2018-06-15T09:29:26.736Z,8.10
2018-06-15T09:31:55.778Z,7.90
2018-06-15T09:34:26.793Z,7.10
2018-06-15T09:36:55.411Z,8.03
2018-06-15T09:39:27.124Z,6.95
2018-06-15T09:41:56.005Z,7.03
2018-06-15T09:44:24.534Z,7.12
2018-06-15T09:46:53.090Z,6.73
2018-06-15T09:49:21.780Z,6.10
2018-06-15T09:51:50.337Z,5.87
2018-06-15T09:54:18.881Z,6.30
2018-06-15T09:56:47.893Z,6.43
2018-06-15T09:59:16.453Z,5.77
2018-06-15T10:01:45.007Z,6.00
2018-06-15T10:04:20.852Z,5.70
2018-06-15T10:06:49.449Z,6.33
2018-06-15T10:09:27.499Z,6.43
2018-06-15T10:11:56.416Z,7.30
2018-06-15T10:14:24.940Z,5.90
2018-06-15T10:16:53.465Z,6.33
2018-06-15T10:19:22.237Z,6.40
2018-06-15T10:21:50.805Z,6.40
2018-06-15T10:24:19.344Z,7.07
2018-06-15T10:26:47.845Z,6.30
2018-06-15T10:29:16.384Z,6.93
2018-06-15T10:31:44.881Z,6.83
2018-06-15T10:34:16.966Z,6.97
2018-06-15T10:37:01.659Z,7.03
2018-06-15T10:39:40.947Z,7.13
2018-06-15T10:42:23.834Z,7.37
2018-06-15T10:45:02.807Z,6.40
2018-06-15T10:47:44.940Z,6.60
2018-06-15T10:50:25.558Z,6.93
2018-06-15T10:53:08.879Z,7.37
2018-06-15T10:55:51.419Z,6.63
2018-06-15T10:58:31.675Z,8.08
2018-06-15T11:01:10.718Z,8.18
2018-06-15T11:03:39.737Z,7.53
2018-06-15T11:06:08.276Z,7.37
2018-06-15T11:08:36.840Z,7.13
2018-06-15T11:11:08.978Z,7.60
2018-06-15T11:13:37.602Z,6.73
2018-06-15T11:16:06.312Z,7.43
2018-06-15T11:18:35.188Z,7.60
2018-06-15T11:21:04.040Z,7.27
2018-06-15T11:23:32.574Z,6.78
2018-06-15T11:26:01.078Z,6.62
2018-06-15T11:28:29.609Z,6.07
2018-06-15T11:30:58.135Z,5.67
2018-06-15T11:33:26.653Z,5.90
2018-06-15T11:35:55.205Z,5.63
2018-06-15T11:38:23.744Z,5.67
2018-06-15T11:40:52.241Z,4.93
2018-06-15T11:43:20.788Z,5.80
2018-06-15T11:45:49.574Z,5.70
2018-06-15T11:48:18.112Z,6.60
2018-06-15T11:50:46.678Z,4.70
2018-06-15T11:53:15.324Z,4.57
2018-06-15T11:55:43.884Z,4.60
2018-06-15T11:58:20.025Z,4.60
2018-06-15T12:00:48.708Z,4.50
2018-06-15T12:03:17.216Z,4.57
2018-06-15T12:05:45.791Z,4.57
2018-06-15T12:08:15.540Z,4.70
2018-06-15T12:10:44.096Z,5.83
2018-06-15T12:13:12.600Z,6.43
2018-06-15T12:15:41.460Z,6.07
2018-06-15T12:18:10.275Z,5.73
2018-06-15T12:20:38.812Z,5.40
2018-06-15T12:23:07.317Z,5.40
2018-06-15T12:25:35.843Z,5.77
2018-06-15T12:28:04.456Z,6.50
2018-06-15T12:30:33.259Z,6.25
2018-06-15T12:33:03.957Z,6.83
2018-06-15T12:35:32.554Z,6.80
2018-06-15T12:38:01.061Z,6.60
2018-06-15T12:40:30.583Z,5.73
2018-06-15T12:42:59.085Z,5.33
2018-06-15T12:45:28.028Z,5.03
2018-06-15T12:47:56.542Z,5.10
2018-06-15T12:50:27.399Z,6.27
2018-06-15T12:52:56.760Z,6.87
2018-06-15T12:55:25.301Z,7.22
2018-06-15T12:57:53.804Z,6.93
2018-06-15T13:00:24.224Z,7.57
2018-06-15T13:02:52.725Z,7.20
2018-06-15T13:05:21.252Z,7.53
2018-06-15T13:07:50.207Z,6.60
2018-06-15T13:10:20.532Z,7.80
2018-06-15T13:12:49.805Z,7.53
2018-06-15T13:15:18.356Z,7.23
2018-06-15T13:17:48.779Z,7.23
2018-06-15T13:20:17.449Z,6.73
2018-06-15T13:22:46.909Z,6.30
2018-06-15T13:25:15.936Z,6.55
2018-06-15T13:27:45.424Z,6.27
2018-06-15T13:30:13.954Z,5.57
2018-06-15T13:32:42.500Z,4.70
2018-06-15T13:35:11.009Z,4.50
2018-06-15T13:37:39.524Z,4.87
2018-06-15T13:40:08.052Z,5.17
2018-06-15T13:42:36.556Z,4.97
2018-06-15T13:45:05.849Z,4.53
2018-06-15T13:47:45.868Z,4.50
2018-06-15T13:50:15.609Z,4.85
2018-06-15T13:52:46.244Z,5.07
2018-06-15T13:55:15.569Z,5.60
2018-06-15T13:57:44.089Z,5.20
2018-06-15T14:00:12.715Z,5.30
2018-06-15T14:02:41.264Z,5.03
2018-06-15T14:05:09.794Z,5.33
2018-06-15T14:07:38.344Z,5.60
2018-06-15T14:10:06.868Z,4.80
2018-06-15T14:12:35.418Z,5.37
2018-06-15T14:15:04.077Z,4.77
2018-06-15T14:17:32.626Z,3.73
2018-06-15T14:20:01.225Z,4.20
2018-06-15T14:22:29.772Z,4.12
2018-06-15T14:24:58.307Z,4.70
2018-06-15T14:27:26.863Z,4.87
2018-06-15T14:29:55.373Z,4.97
2018-06-15T14:32:23.912Z,5.37
2018-06-15T14:34:52.429Z,5.37
2018-06-15T14:37:20.984Z,6.00
2018-06-15T14:39:49.525Z,5.73
2018-06-15T14:42:18.081Z,5.67
2018-06-15T14:44:46.612Z,6.40
2018-06-15T14:47:15.804Z,5.92
2018-06-15T14:49:44.392Z,6.43
2018-06-15T14:52:12.934Z,6.07
2018-06-15T14:54:41.465Z,6.47
2018-06-15T14:57:10.009Z,5.60
2018-06-15T14:59:38.574Z,5.60
2018-06-15T15:02:07.177Z,5.87
2018-06-15T15:04:35.777Z,5.20
2018-06-15T15:07:04.323Z,5.67
2018-06-15T15:09:32.834Z,5.63
2018-06-15T15:12:01.373Z,6.27
2018-06-15T15:14:29.877Z,5.15
2018-06-15T15:16:58.417Z,5.50
2018-06-15T15:19:26.931Z,5.43
2018-06-15T15:21:55.471Z,4.90
2018-06-15T15:24:23.972Z,5.50
2018-06-15T15:26:52.509Z,5.17
2018-06-15T15:29:21.017Z,4.80
2018-06-15T15:31:49.607Z,5.07
2018-06-15T15:34:18.105Z,4.77
2018-06-15T15:36:46.904Z,4.50
2018-06-15T15:39:15.897Z,4.28
2018-06-15T15:41:44.434Z,3.73
2018-06-15T15:44:12.936Z,3.80
2018-06-15T15:46:41.493Z,4.33
2018-06-15T15:49:09.997Z,4.23
2018-06-15T15:51:38.506Z,3.93
2018-06-15T15:54:07.040Z,4.10
2018-06-15T15:56:35.553Z,3.80
2018-06-15T15:59:04.152Z,4.20
2018-06-15T16:01:32.708Z,4.20
2018-06-15T16:04:01.260Z,3.42
2018-06-15T16:06:29.782Z,3.70
2018-06-15T16:08:58.325Z,3.80
2018-06-15T16:11:26.849Z,3.70
2018-06-15T16:13:55.400Z,3.67
2018-06-15T16:16:24.017Z,3.53
2018-06-15T16:18:52.566Z,3.40
2018-06-15T16:21:21.090Z,3.93
2018-06-15T16:23:49.648Z,3.83
2018-06-15T16:26:18.187Z,3.90
2018-06-15T16:28:46.737Z,3.43
2018-06-15T16:31:16.059Z,4.22
2018-06-15T16:33:44.621Z,4.10
2018-06-15T16:36:13.174Z,4.57
2018-06-15T16:38:41.760Z,4.77
2018-06-15T16:41:10.364Z,4.70
2018-06-15T16:43:38.932Z,4.50
2018-06-15T16:46:07.524Z,4.83
2018-06-15T16:48:36.089Z,5.00
2018-06-15T16:51:04.645Z,4.93
2018-06-15T16:53:33.205Z,4.77
2018-06-15T16:56:01.722Z,4.50
2018-06-15T16:58:30.276Z,5.30
2018-06-15T17:00:58.808Z,4.30
2018-06-15T17:03:28.544Z,4.90
2018-06-15T17:06:04.276Z,4.10
2018-06-15T17:08:43.433Z,4.50
2018-06-15T17:11:17.921Z,4.70
2018-06-15T17:13:56.178Z,4.57
2018-06-15T17:16:38.132Z,4.53
2018-06-15T17:19:12.592Z,4.77
2018-06-15T17:21:46.008Z,4.97
2018-06-15T17:24:22.848Z,4.70
2018-06-15T17:26:58.117Z,4.45
2018-06-15T17:29:35.930Z,4.67
2018-06-15T17:32:10.576Z,4.60
2018-06-15T17:34:39.749Z,4.27
2018-06-15T17:37:08.261Z,4.77
2018-06-15T17:39:36.790Z,5.10
2018-06-15T17:42:05.348Z,4.60
2018-06-15T17:44:33.902Z,4.70
2018-06-15T17:47:03.856Z,4.87
2018-06-15T17:49:35.266Z,5.17
2018-06-15T17:52:05.124Z,4.78
2018-06-15T17:54:36.369Z,5.10
2018-06-15T17:57:07.757Z,4.47
2018-06-15T17:59:37.856Z,4.50
2018-06-15T18:02:11.073Z,4.97
2018-06-15T18:04:40.954Z,15.17
2018-06-15T18:07:10.994Z,23.20
2018-06-15T18:09:40.177Z,4.20
2018-06-15T18:12:09.532Z,4.43
2018-06-15T18:14:39.971Z,4.80
2018-06-15T18:17:10.818Z,4.70
2018-06-15T18:19:40.353Z,5.13
2018-06-15T18:22:11.073Z,4.93
2018-06-15T18:24:41.395Z,5.00
2018-06-15T18:27:10.694Z,5.33
2018-06-15T18:29:39.714Z,5.30
2018-06-15T18:32:09.056Z,5.30
2018-06-15T18:34:38.608Z,5.23
2018-06-15T18:37:09.537Z,5.03
2018-06-15T18:39:38.749Z,5.20
2018-06-15T18:42:08.027Z,5.20
2018-06-15T18:44:37.613Z,5.23
2018-06-15T18:47:11.234Z,5.70
2018-06-15T18:49:40.438Z,5.47
2018-06-15T18:52:09.261Z,5.53
2018-06-15T18:54:41.499Z,5.70
2018-06-15T18:57:12.030Z,6.00
2018-06-15T18:59:42.179Z,5.90
2018-06-15T19:02:11.211Z,6.10
2018-06-15T19:04:42.667Z,6.07
2018-06-15T19:07:12.748Z,5.70
2018-06-15T19:09:43.229Z,5.97
2018-06-15T19:12:14.045Z,6.20
2018-06-15T19:14:45.485Z,5.93
2018-06-15T19:17:37.669Z,5.63
2018-06-15T19:20:06.936Z,6.67
2018-06-15T19:22:37.277Z,6.00
2018-06-15T19:25:06.232Z,6.63
2018-06-15T19:27:35.515Z,6.00
2018-06-15T19:30:06.852Z,6.53
2018-06-15T19:32:35.796Z,6.00
2018-06-15T19:35:06.849Z,6.60
2018-06-15T19:37:36.486Z,6.23
2018-06-15T19:40:10.273Z,7.07
2018-06-15T19:42:42.815Z,7.20
2018-06-15T19:45:11.764Z,7.47
2018-06-15T19:47:45.626Z,8.00
2018-06-15T19:50:15.407Z,7.87
2018-06-15T19:52:44.347Z,8.57
2018-06-15T19:55:15.212Z,9.10
2018-06-15T19:57:43.966Z,7.83
2018-06-15T20:00:12.513Z,8.60
2018-06-15T20:02:41.039Z,9.00
2018-06-15T20:05:10.926Z,8.23
2018-06-15T20:07:39.488Z,8.27
2018-06-15T20:10:08.556Z,7.60
2018-06-15T20:12:38.448Z,7.97
2018-06-15T20:15:07.056Z,7.90
2018-06-15T20:17:35.569Z,7.67
2018-06-15T20:20:04.176Z,7.53
2018-06-15T20:22:32.706Z,7.97
2018-06-15T20:25:02.748Z,7.77
2018-06-15T20:27:31.316Z,7.65
2018-06-15T20:29:59.912Z,7.13
2018-06-15T20:32:28.434Z,8.10
2018-06-15T20:34:57.099Z,8.33
2018-06-15T20:37:25.621Z,7.90
2018-06-15T20:39:58.960Z,6.92
2018-06-15T20:42:27.621Z,7.40
2018-06-15T20:45:00.657Z,7.87
2018-06-15T20:47:29.172Z,7.47
2018-06-15T20:49:59.840Z,8.05
2018-06-15T20:52:28.373Z,7.67
2018-06-15T20:54:56.939Z,7.67
2018-06-15T20:57:27.251Z,8.30
2018-06-15T21:00:00.544Z,7.80
2018-06-15T21:02:34.308Z,7.13
2018-06-15T21:05:03.072Z,8.23
2018-06-15T21:07:35.838Z,7.67
2018-06-15T21:10:05.005Z,8.00
2018-06-15T21:12:35.080Z,7.80
2018-06-15T21:15:04.632Z,8.00
2018-06-15T21:17:33.762Z,8.27
2018-06-15T21:20:03.833Z,7.90
2018-06-15T21:22:33.659Z,8.00
2018-06-15T21:25:05.473Z,8.33
2018-06-15T21:27:36.925Z,7.40
2018-06-15T21:30:06.748Z,7.80
2018-06-15T21:32:36.940Z,8.33
2018-06-15T21:35:07.250Z,8.55
2018-06-15T21:37:38.056Z,7.60
2018-06-15T21:40:07.735Z,7.43
2018-06-15T21:42:37.050Z,7.67
2018-06-15T21:45:05.865Z,9.90
2018-06-15T21:47:36.465Z,8.77
2018-06-15T21:50:08.528Z,10.03
2018-06-15T21:52:38.812Z,8.23
2018-06-15T21:55:09.517Z,8.00
2018-06-15T21:57:39.600Z,8.13
2018-06-15T22:00:12.219Z,8.20
2018-06-15T22:02:43.270Z,9.30
2018-06-15T22:05:16.062Z,7.80
2018-06-15T22:07:46.926Z,8.80
2018-06-15T22:10:17.173Z,8.90
2018-06-15T22:12:48.767Z,7.93
2018-06-15T22:15:21.075Z,8.80
2018-06-15T22:17:51.249Z,9.20
2018-06-15T22:20:20.276Z,8.60
2018-06-15T22:22:50.029Z,9.23
2018-06-15T22:25:21.446Z,8.87
2018-06-15T22:27:51.724Z,10.33
2018-06-15T22:30:22.018Z,9.07
2018-06-15T22:32:52.347Z,9.90
2018-06-15T22:35:23.552Z,10.40
2018-06-15T22:37:53.040Z,11.83
2018-06-15T22:40:23.344Z,12.33
2018-06-15T22:42:53.479Z,12.30
2018-06-15T22:45:24.301Z,12.30
2018-06-15T22:47:55.147Z,12.20
2018-06-15T22:50:23.725Z,10.40
2018-06-15T22:52:52.372Z,11.00
2018-06-15T22:55:20.944Z,12.43
2018-06-15T22:57:49.625Z,11.40
2018-06-15T23:00:19.245Z,13.70
2018-06-15T23:02:48.584Z,10.60
2018-06-15T23:05:18.061Z,9.95
2018-06-15T23:07:47.788Z,11.27
2018-06-15T23:10:16.313Z,10.20
2018-06-15T23:12:44.848Z,11.10
2018-06-15T23:15:13.728Z,10.93
2018-06-15T23:17:42.281Z,10.27
2018-06-15T23:20:10.790Z,10.10
2018-06-15T23:22:39.424Z,10.90
2018-06-15T23:25:07.941Z,10.95
2018-06-15T23:27:36.566Z,12.10
2018-06-15T23:30:05.456Z,12.17
2018-06-15T23:32:33.997Z,9.90
2018-06-15T23:35:02.507Z,10.00
2018-06-15T23:37:31.049Z,10.95
2018-06-15T23:39:59.552Z,10.50
2018-06-15T23:42:28.089Z,10.32
2018-06-15T23:44:56.605Z,10.53
2018-06-15T23:47:25.144Z,10.00
2018-06-15T23:49:53.641Z,11.00
2018-06-15T23:52:22.181Z,8.63
2018-06-15T23:54:50.690Z,11.40
2018-06-15T23:57:19.228Z,11.87
2018-06-15T23:59:48.209Z,10.55
